Time;durP1;ratioP1;P1;durP2;ratioP2;P2;SDS_P1;SDS_P2;PMS_P1;PMS_P2;Temp;Humidity;BMP_temperature;BMP_pressure;BME280_temperature;BME280_humidity;BME280_pressure;Samples;Min_cycle;Max_cycle;Signal;HPM_P1;HPM_P2
2021/04/14 00:01:26;;;;;;;5.50;3.45;;;2.80;99.90;;;;;;5053674;28;20060;-65
2021/04/14 00:03:52;;;;;;;5.78;3.00;;;2.80;99.90;;;;;;5053502;28;20493;-65
2021/04/14 00:06:18;;;;;;;9.02;3.20;;;2.70;99.90;;;;;;5053757;28;20029;-65
2021/04/14 00:08:44;;;;;;;7.15;3.60;;;2.70;99.90;;;;;;5053444;28;20037;-65
2021/04/14 00:11:18;;;;;;;8.75;3.40;;;2.50;99.90;;;;;;5035783;28;20068;-65
2021/04/14 00:13:45;;;;;;;6.13;3.45;;;2.50;99.90;;;;;;5035834;28;20032;-66
2021/04/14 00:16:21;;;;;;;6.22;3.33;;;2.40;99.90;;;;;;5053719;28;20033;-65
2021/04/14 00:18:47;;;;;;;9.55;3.35;;;2.40;99.90;;;;;;5030165;28;20037;-65
2021/04/14 00:21:15;;;;;;;7.82;3.33;;;2.30;99.90;;;;;;5033440;28;20065;-65
2021/04/14 00:23:41;;;;;;;8.13;3.55;;;2.10;99.90;;;;;;5033106;28;20032;-66
2021/04/14 00:26:07;;;;;;;7.68;3.67;;;2.10;99.90;;;;;;5033230;28;20108;-65
2021/04/14 00:28:34;;;;;;;10.45;3.78;;;2.10;99.90;;;;;;5033517;28;20517;-66
2021/04/14 00:31:01;;;;;;;10.07;3.55;;;1.90;99.90;;;;;;5033265;28;20120;-66
2021/04/14 00:33:26;;;;;;;8.38;3.47;;;1.90;99.90;;;;;;5033459;28;20057;-65
2021/04/14 00:35:54;;;;;;;8.32;3.50;;;2.00;99.90;;;;;;5033217;28;20060;-66
2021/04/14 00:38:21;;;;;;;7.20;3.83;;;1.90;99.90;;;;;;5033284;28;20125;-65
2021/04/14 00:41:01;;;;;;;6.18;3.40;;;1.90;99.90;;;;;;5015300;28;20037;-66
2021/04/14 00:43:32;;;;;;;7.97;3.63;;;2.00;99.90;;;;;;5033151;28;20554;-66
2021/04/14 00:45:58;;;;;;;8.07;4.47;;;2.00;99.90;;;;;;5033132;28;20037;-66
2021/04/14 00:48:24;;;;;;;7.82;3.80;;;2.00;99.90;;;;;;5032958;28;20086;-65
2021/04/14 00:50:50;;;;;;;8.00;3.53;;;2.00;99.90;;;;;;5032949;28;20106;-66
2021/04/14 00:53:17;;;;;;;6.85;3.38;;;2.00;99.90;;;;;;5033014;28;20029;-65
2021/04/14 00:55:44;;;;;;;15.07;3.97;;;2.00;99.90;;;;;;5032870;28;20057;-65
2021/04/14 00:58:10;;;;;;;6.85;3.47;;;1.90;99.90;;;;;;5032004;28;20039;-65
2021/04/14 01:00:48;;;;;;;15.52;3.70;;;1.80;99.90;;;;;;5032547;28;20429;-65
2021/04/14 01:03:20;;;;;;;7.35;3.70;;;1.90;99.90;;;;;;5015149;28;20037;-65
2021/04/14 01:05:50;;;;;;;8.63;3.65;;;1.90;99.90;;;;;;5032517;28;20401;-66
2021/04/14 01:08:17;;;;;;;7.72;3.53;;;1.90;99.90;;;;;;5032542;28;20086;-66
2021/04/14 01:10:43;;;;;;;7.88;3.88;;;1.80;99.90;;;;;;5032789;28;20039;-66
2021/04/14 01:13:11;;;;;;;7.72;3.90;;;1.70;99.90;;;;;;5032411;28;20371;-66
2021/04/14 01:15:43;;;;;;;8.82;3.88;;;1.60;99.90;;;;;;5032727;28;20025;-66
2021/04/14 01:18:16;;;;;;;6.07;3.30;;;1.60;99.90;;;;;;5032453;28;20489;-64
2021/04/14 01:20:42;;;;;;;9.90;4.00;;;1.60;99.90;;;;;;5014901;28;20038;-66
2021/04/14 01:23:09;;;;;;;19.98;3.97;;;1.60;99.90;;;;;;5014684;28;20037;-66
2021/04/14 01:25:40;;;;;;;8.52;3.92;;;1.70;99.90;;;;;;5032554;28;20048;-67
2021/04/14 01:28:16;;;;;;;9.73;3.90;;;1.70;99.90;;;;;;5032294;28;20037;-66
2021/04/14 01:30:42;;;;;;;9.27;4.00;;;1.60;99.90;;;;;;5032279;28;20128;-66
2021/04/14 01:33:14;;;;;;;5.97;3.90;;;1.60;99.90;;;;;;5014411;28;20088;-66
2021/04/14 01:35:40;;;;;;;7.88;3.95;;;1.60;99.90;;;;;;5032316;28;20037;-66
2021/04/14 01:38:06;;;;;;;6.78;3.83;;;1.50;99.90;;;;;;5032401;28;20033;-67
2021/04/14 01:40:33;;;;;;;7.63;4.22;;;1.40;99.90;;;;;;5014616;28;20083;-66
2021/04/14 01:42:59;;;;;;;14.65;4.72;;;1.40;99.90;;;;;;5032110;28;20092;-66
2021/04/14 01:45:34;;;;;;;8.55;4.10;;;1.40;99.90;;;;;;5032319;28;20041;-67
2021/04/14 01:48:00;;;;;;;6.68;4.00;;;1.40;99.90;;;;;;5032141;28;20450;-66
2021/04/14 01:50:27;;;;;;;8.00;4.20;;;1.30;99.90;;;;;;5032300;28;20116;-66
2021/04/14 01:52:54;;;;;;;10.02;4.28;;;1.40;99.90;;;;;;5014523;28;20026;-66
2021/04/14 01:55:22;;;;;;;8.48;3.83;;;1.30;99.90;;;;;;5032210;28;20030;-66
2021/04/14 01:57:49;;;;;;;6.95;4.00;;;1.30;99.90;;;;;;5031601;28;20446;-65
2021/04/14 02:00:35;;;;;;;7.53;3.78;;;1.20;99.90;;;;;;5031362;28;20076;-65
2021/04/14 02:03:02;;;;;;;8.35;3.83;;;1.30;99.90;;;;;;5014563;28;20022;-65
2021/04/14 02:05:31;;;;;;;7.57;4.22;;;1.30;99.90;;;;;;5014774;28;20029;-66
2021/04/14 02:07:59;;;;;;;14.30;4.07;;;1.20;99.90;;;;;;5032285;28;20530;-66
2021/04/14 02:10:29;;;;;;;8.80;3.88;;;1.10;99.90;;;;;;5035899;28;20029;-65
2021/04/14 02:12:56;;;;;;;8.80;4.47;;;0.90;99.90;;;;;;5036050;28;20040;-65
2021/04/14 02:15:29;;;;;;;6.82;4.28;;;0.90;99.90;;;;;;5035998;28;20033;-65
2021/04/14 02:17:56;;;;;;;9.18;4.93;;;0.70;99.90;;;;;;5035909;28;20064;-66
2021/04/14 02:20:23;;;;;;;9.95;4.75;;;0.80;99.90;;;;;;5035446;28;20495;-66
2021/04/14 02:22:50;;;;;;;8.32;4.63;;;0.80;99.90;;;;;;5035661;28;20112;-66
2021/04/14 02:25:17;;;;;;;6.93;4.22;;;0.80;99.90;;;;;;5035703;28;20151;-65
2021/04/14 02:27:43;;;;;;;7.25;4.10;;;0.80;99.90;;;;;;5035592;28;20037;-65
2021/04/14 02:30:16;;;;;;;7.53;4.35;;;0.80;99.90;;;;;;5018037;28;20056;-65
2021/04/14 02:32:42;;;;;;;8.82;4.50;;;0.90;99.90;;;;;;5035606;28;20029;-67
2021/04/14 02:35:09;;;;;;;7.70;4.10;;;0.80;99.90;;;;;;5035569;28;20044;-66
2021/04/14 02:37:35;;;;;;;8.45;4.40;;;0.90;99.90;;;;;;5035599;28;20030;-66
2021/04/14 02:40:07;;;;;;;7.20;4.43;;;0.90;99.90;;;;;;5035245;28;20124;-65
2021/04/14 02:42:34;;;;;;;9.52;4.22;;;1.00;99.90;;;;;;5035103;28;20026;-66
2021/04/14 02:44:59;;;;;;;7.32;4.35;;;1.00;99.90;;;;;;5035001;28;20042;-65
2021/04/14 02:47:25;;;;;;;10.98;4.70;;;1.00;99.90;;;;;;5035390;28;20048;-66
2021/04/14 02:49:51;;;;;;;8.55;4.78;;;1.00;99.90;;;;;;5035197;28;20033;-66
2021/04/14 02:52:17;;;;;;;8.82;4.93;;;1.00;99.90;;;;;;5017294;28;20030;-66
2021/04/14 02:54:43;;;;;;;10.18;5.57;;;1.00;99.90;;;;;;5034930;28;20049;-66
2021/04/14 02:57:09;;;;;;;7.70;5.45;;;1.00;99.90;;;;;;5035105;28;20102;-66
2021/04/14 02:59:34;;;;;;;11.05;5.57;;;1.00;99.90;;;;;;5035026;28;20064;-66
2021/04/14 03:02:00;;;;;;;7.68;4.72;;;1.00;99.90;;;;;;5034967;28;20080;-65
2021/04/14 03:04:26;;;;;;;11.38;5.50;;;1.10;99.90;;;;;;5035189;28;20033;-65
2021/04/14 03:06:53;;;;;;;10.75;6.57;;;1.10;99.90;;;;;;5035069;28;20059;-66
2021/04/14 03:09:19;;;;;;;10.63;5.78;;;1.10;99.90;;;;;;5034919;28;20030;-66
2021/04/14 03:11:45;;;;;;;11.32;6.15;;;1.10;99.90;;;;;;5034966;28;20033;-65
2021/04/14 03:14:11;;;;;;;18.50;6.00;;;1.00;99.90;;;;;;5034787;28;20462;-65
2021/04/14 03:16:36;;;;;;;9.73;6.10;;;1.10;99.90;;;;;;5034900;28;20029;-66
2021/04/14 03:19:03;;;;;;;12.75;6.63;;;1.20;99.90;;;;;;5034353;28;20053;-66
2021/04/14 03:21:28;;;;;;;9.23;5.95;;;1.10;99.90;;;;;;5033721;28;20033;-65
2021/04/14 03:23:54;;;;;;;10.50;7.03;;;1.10;99.90;;;;;;5034268;28;20033;-66
2021/04/14 03:26:21;;;;;;;12.15;6.88;;;1.10;99.90;;;;;;5034430;28;20030;-66
2021/04/14 03:28:47;;;;;;;12.40;6.65;;;1.10;99.90;;;;;;5034619;28;20022;-66
2021/04/14 03:31:13;;;;;;;13.15;7.03;;;1.10;99.90;;;;;;5034597;28;20029;-66
2021/04/14 03:33:38;;;;;;;10.45;6.35;;;1.10;99.90;;;;;;5034550;28;20032;-66
2021/04/14 03:36:05;;;;;;;11.50;7.05;;;1.10;99.90;;;;;;5016645;28;20071;-65
2021/04/14 03:38:31;;;;;;;17.52;6.88;;;1.10;99.90;;;;;;5034467;28;20048;-66
2021/04/14 03:40:57;;;;;;;12.75;6.60;;;1.20;99.90;;;;;;5034133;28;20037;-66
2021/04/14 03:43:23;;;;;;;14.50;7.47;;;1.20;99.90;;;;;;5016753;28;20090;-65
2021/04/14 03:45:52;;;;;;;11.82;6.30;;;1.20;99.90;;;;;;5014897;28;20087;-66
2021/04/14 03:48:18;;;;;;;14.77;6.60;;;1.30;99.90;;;;;;5038739;28;20025;-66
2021/04/14 03:50:44;;;;;;;18.08;6.93;;;1.30;99.90;;;;;;5033850;28;20096;-69
2021/04/14 03:53:21;;;;;;;16.23;7.97;;;1.30;99.90;;;;;;5034015;28;20030;-69
2021/04/14 03:55:53;;;;;;;15.57;7.30;;;1.30;99.90;;;;;;5034387;28;20033;-69
2021/04/14 03:58:21;;;;;;;14.80;6.80;;;1.30;99.90;;;;;;5031024;28;20029;-70
2021/04/14 04:00:54;;;;;;;13.35;6.65;;;1.40;99.90;;;;;;5034092;28;20052;-68
2021/04/14 04:03:22;;;;;;;10.63;5.75;;;1.40;99.90;;;;;;5034162;28;20049;-69
2021/04/14 04:05:48;;;;;;;11.38;6.88;;;1.50;99.90;;;;;;5049218;28;20394;-68
2021/04/14 04:08:14;;;;;;;9.73;6.32;;;1.50;99.90;;;;;;5033470;28;20081;-67
2021/04/14 04:10:44;;;;;;;11.15;5.68;;;1.50;99.90;;;;;;5033454;28;20479;-66
2021/04/14 04:13:10;;;;;;;12.38;5.97;;;1.50;99.90;;;;;;5033684;28;20243;-66
2021/04/14 04:15:40;;;;;;;9.65;5.82;;;1.50;99.90;;;;;;5033568;28;20079;-67
2021/04/14 04:18:06;;;;;;;10.15;6.22;;;1.60;99.90;;;;;;5033613;28;20033;-66
2021/04/14 04:20:34;;;;;;;13.10;6.47;;;1.50;99.90;;;;;;5052780;28;20041;-67
2021/04/14 04:23:02;;;;;;;12.95;6.10;;;1.50;99.90;;;;;;5053264;28;20028;-69
2021/04/14 04:25:30;;;;;;;13.10;5.90;;;1.60;99.90;;;;;;5053403;28;20032;-66
2021/04/14 04:27:57;;;;;;;16.85;6.35;;;1.60;99.90;;;;;;5053179;28;20025;-64
2021/04/14 04:30:23;;;;;;;11.73;5.78;;;1.50;99.90;;;;;;5068692;28;20029;-65
2021/04/14 04:32:49;;;;;;;15.00;5.90;;;1.40;99.90;;;;;;5053256;28;20176;-65
2021/04/14 04:35:18;;;;;;;12.98;5.82;;;1.50;99.90;;;;;;5053169;28;20473;-68
2021/04/14 04:37:43;;;;;;;14.73;6.40;;;1.50;99.90;;;;;;5053274;28;20063;-67
2021/04/14 04:40:10;;;;;;;12.80;7.25;;;1.50;99.90;;;;;;5052987;28;20466;-67
2021/04/14 04:42:36;;;;;;;13.65;5.53;;;1.60;99.90;;;;;;5052506;28;20060;-68
2021/04/14 04:45:06;;;;;;;12.35;6.82;;;1.70;99.90;;;;;;5052999;28;20041;-66
2021/04/14 04:47:32;;;;;;;14.65;6.93;;;1.90;99.90;;;;;;5053002;28;20485;-68
2021/04/14 04:50:00;;;;;;;12.50;5.53;;;2.00;99.90;;;;;;5052593;28;20434;-69
2021/04/14 04:52:29;;;;;;;10.15;5.65;;;2.00;99.90;;;;;;5052989;28;20025;-69
2021/04/14 04:54:55;;;;;;;11.60;5.47;;;2.00;99.90;;;;;;5067994;28;20524;-68
2021/04/14 04:57:21;;;;;;;14.95;6.35;;;1.90;99.90;;;;;;5053015;28;20025;-69
2021/04/14 04:59:47;;;;;;;11.05;5.68;;;1.90;99.90;;;;;;5052914;28;20036;-68
2021/04/14 05:02:13;;;;;;;10.68;5.60;;;2.00;99.90;;;;;;5052534;28;20386;-69
2021/04/14 05:04:40;;;;;;;8.85;5.88;;;2.00;99.90;;;;;;5068084;28;20060;-68
2021/04/14 05:07:06;;;;;;;11.05;5.00;;;2.00;99.90;;;;;;5052684;28;20119;-70
2021/04/14 05:09:32;;;;;;;12.05;6.57;;;2.10;99.90;;;;;;5067191;28;20120;-69
2021/04/14 05:11:57;;;;;;;10.77;5.38;;;2.00;99.90;;;;;;5052503;28;20033;-69
2021/04/14 05:14:23;;;;;;;9.48;5.22;;;2.10;99.90;;;;;;5052700;28;20040;-69
2021/04/14 05:16:49;;;;;;;12.48;5.10;;;2.10;99.90;;;;;;5049527;28;20029;-69
2021/04/14 05:19:15;;;;;;;13.70;5.32;;;2.10;99.90;;;;;;5048376;28;20098;-70
2021/04/14 05:21:41;;;;;;;11.63;5.22;;;2.20;99.90;;;;;;5051526;28;20036;-73
2021/04/14 05:24:10;;;;;;;11.20;6.00;;;2.20;99.90;;;;;;5051902;28;20021;-69
2021/04/14 05:26:37;;;;;;;10.45;5.57;;;2.20;99.90;;;;;;5049793;28;20028;-69
2021/04/14 05:29:04;;;;;;;7.70;4.85;;;2.20;99.90;;;;;;5052224;28;20025;-70
2021/04/14 05:31:37;;;;;;;10.95;5.07;;;2.30;99.90;;;;;;5050763;28;20033;-68
2021/04/14 05:34:03;;;;;;;6.78;4.70;;;2.30;99.90;;;;;;5052111;28;20190;-68
2021/04/14 05:36:29;;;;;;;16.20;5.55;;;2.30;99.90;;;;;;5052444;28;20494;-68
2021/04/14 05:38:55;;;;;;;11.75;4.70;;;2.20;99.90;;;;;;5052143;28;20025;-70
2021/04/14 05:41:22;;;;;;;10.63;5.22;;;2.20;99.90;;;;;;5052204;28;20501;-71
2021/04/14 05:43:48;;;;;;;8.80;4.97;;;2.30;99.90;;;;;;5033796;28;20143;-69
2021/04/14 05:46:18;;;;;;;11.93;4.70;;;2.50;99.90;;;;;;5052316;28;20477;-69
2021/04/14 05:48:46;;;;;;;18.25;4.82;;;2.60;99.90;;;;;;5052179;28;20025;-68
2021/04/14 05:51:25;;;;;;;11.40;5.03;;;2.60;99.90;;;;;;5051808;28;20487;-69
2021/04/14 05:53:51;;;;;;;10.15;4.82;;;2.70;99.90;;;;;;5052048;28;20025;-69
2021/04/14 05:56:19;;;;;;;6.38;3.72;;;2.70;99.90;;;;;;5052128;28;20065;-69
2021/04/14 05:58:45;;;;;;;9.73;4.38;;;2.70;99.90;;;;;;5051815;28;20387;-69
2021/04/14 06:01:16;;;;;;;10.82;3.47;;;2.80;99.90;;;;;;5051620;28;20662;-69
2021/04/14 06:03:42;;;;;;;8.65;3.97;;;2.80;99.90;;;;;;5033895;28;20115;-70
2021/04/14 06:06:08;;;;;;;8.85;3.88;;;3.00;99.90;;;;;;5051576;28;20439;-68
2021/04/14 06:08:34;;;;;;;7.45;3.83;;;3.00;99.90;;;;;;5049286;28;20112;-69
2021/04/14 06:11:01;;;;;;;6.70;3.38;;;3.10;99.90;;;;;;5050215;28;20029;-69
2021/04/14 06:13:28;;;;;;;9.70;4.22;;;3.00;99.90;;;;;;5051832;28;20029;-68
2021/04/14 06:15:54;;;;;;;19.83;4.28;;;3.20;99.90;;;;;;5034339;28;20064;-70
2021/04/14 06:18:20;;;;;;;12.75;4.18;;;3.20;99.90;;;;;;5051539;28;20033;-69
2021/04/14 06:20:46;;;;;;;15.73;4.63;;;3.30;99.90;;;;;;5049250;28;20083;-69
2021/04/14 06:23:17;;;;;;;8.25;4.32;;;3.40;99.90;;;;;;5051771;28;20418;-70
2021/04/14 06:28:30;;;;;;;8.07;3.75;;;3.30;99.90;;;;;;5029641;28;20059;-69
2021/04/14 06:30:59;;;;;;;7.22;3.67;;;3.20;99.90;;;;;;5051696;28;20033;-70
2021/04/14 06:33:28;;;;;;;6.63;3.53;;;3.30;99.90;;;;;;5051797;28;20031;-70
2021/04/14 06:35:55;;;;;;;7.38;4.13;;;3.40;99.90;;;;;;5051804;28;20478;-69
2021/04/14 06:38:25;;;;;;;7.75;3.38;;;3.50;99.90;;;;;;5051276;28;20078;-69
2021/04/14 06:41:42;;;;;;;6.75;3.50;;;3.50;99.90;;;;;;5033384;28;20064;-68
2021/04/14 06:44:26;;;;;;;9.38;4.03;;;3.60;99.90;;;;;;5066715;28;20090;-69
2021/04/14 06:46:53;;;;;;;8.57;3.83;;;3.60;99.90;;;;;;5050560;28;20033;-68
2021/04/14 06:49:44;;;;;;;9.27;3.97;;;3.80;99.90;;;;;;5051485;28;20040;-69
2021/04/14 06:52:47;;;;;;;17.33;4.82;;;3.90;99.90;;;;;;5051392;28;20478;-68
2021/04/14 06:55:38;;;;;;;10.10;4.35;;;4.10;99.90;;;;;;5051607;28;20123;-68
2021/04/14 06:58:20;;;;;;;10.57;4.25;;;4.20;99.90;;;;;;5054930;28;20044;-68
2021/04/14 07:00:59;;;;;;;7.60;3.95;;;4.30;99.90;;;;;;5053837;28;20144;-69
2021/04/14 07:03:37;;;;;;;7.63;4.47;;;4.40;99.90;;;;;;5053739;28;20033;-69
2021/04/14 07:06:07;;;;;;;12.55;5.47;;;4.60;99.90;;;;;;5054831;28;20064;-67
2021/04/14 07:08:41;;;;;;;7.47;3.95;;;4.80;99.90;;;;;;5053628;28;20040;-68
2021/04/14 07:11:10;;;;;;;12.45;5.55;;;4.80;99.90;;;;;;5053625;28;20095;-69
2021/04/14 07:13:37;;;;;;;12.35;4.65;;;5.00;99.90;;;;;;5069112;28;20549;-69
2021/04/14 07:16:56;;;;;;;7.05;3.80;;;5.10;99.90;;;;;;5054674;28;20039;-69
2021/04/14 07:19:51;;;;;;;7.53;3.83;;;5.20;99.90;;;;;;5037897;28;20053;-69
2021/04/14 07:22:47;;;;;;;8.60;3.92;;;5.30;99.90;;;;;;5054633;28;20037;-70
2021/04/14 07:25:51;;;;;;;8.60;4.10;;;5.40;99.90;;;;;;5053338;28;20036;-69
2021/04/14 07:28:56;;;;;;;5.75;3.55;;;5.60;99.90;;;;;;5030113;28;20071;-68
2021/04/14 07:32:06;;;;;;;8.80;3.60;;;5.70;99.90;;;;;;5040171;28;20462;-69
2021/04/14 07:35:02;;;;;;;5.30;2.80;;;5.80;99.90;;;;;;5054370;28;20067;-69
2021/04/14 07:37:55;;;;;;;7.03;3.42;;;5.60;99.90;;;;;;5054355;28;20025;-68
2021/04/14 07:40:47;;;;;;;6.80;3.83;;;5.80;99.90;;;;;;5053155;28;20496;-70
2021/04/14 07:43:31;;;;;;;;;;;5.90;99.90;;;;;;5054584;28;20033;-69
2021/04/14 07:45:57;;;;;;;10.02;3.63;;;5.90;99.90;;;;;;5054160;28;19919;-70
2021/04/14 07:48:33;;;;;;;6.32;3.58;;;6.00;99.90;;;;;;5053809;28;20381;-69
2021/04/14 07:51:03;;;;;;;8.75;3.15;;;6.10;99.90;;;;;;5054018;28;20032;-69
2021/04/14 07:53:33;;;;;;;6.97;3.60;;;6.40;99.90;;;;;;5053790;28;20481;-70
2021/04/14 07:56:21;;;;;;;8.95;3.63;;;6.20;99.90;;;;;;5054051;28;20054;-68
2021/04/14 07:59:08;;;;;;;9.20;3.85;;;6.30;99.90;;;;;;5052104;28;20029;-68
2021/04/14 08:01:37;;;;;;;6.90;2.90;;;6.40;99.90;;;;;;5052956;28;20037;-70
2021/04/14 08:04:17;;;;;;;8.43;3.45;;;6.40;99.90;;;;;;5052502;28;20408;-69
2021/04/14 08:06:43;;;;;;;14.70;3.88;;;6.40;99.90;;;;;;5053365;28;20068;-71
2021/04/14 08:09:18;;;;;;;4.78;2.78;;;6.50;99.90;;;;;;5052275;28;20056;-69
2021/04/14 08:11:44;;;;;;;6.32;2.70;;;6.50;99.90;;;;;;5053371;28;20367;-68
2021/04/14 08:14:39;;;;;;;9.77;2.58;;;6.50;99.90;;;;;;5053461;28;20163;-69
2021/04/14 08:17:24;;;;;;;5.97;2.53;;;6.50;99.90;;;;;;5053516;28;20029;-69
2021/04/14 08:20:03;;;;;;;6.45;2.72;;;6.50;99.90;;;;;;5052918;28;20076;-69
2021/04/14 08:22:30;;;;;;;5.45;2.67;;;6.50;99.90;;;;;;5035971;28;20033;-69
2021/04/14 08:25:04;;;;;;;5.95;2.35;;;6.60;99.90;;;;;;5053371;28;20025;-70
2021/04/14 08:27:39;;;;;;;5.53;2.80;;;6.50;99.90;;;;;;5035934;28;20028;-69
2021/04/14 08:30:15;;;;;;;7.30;2.20;;;6.70;99.90;;;;;;5052993;28;20529;-70
2021/04/14 08:33:08;;;;;;;6.85;2.63;;;6.80;99.90;;;;;;5053025;28;20168;-69
2021/04/14 08:35:50;;;;;;;7.68;2.72;;;6.90;99.90;;;;;;5036247;28;20036;-69
2021/04/14 08:38:29;;;;;;;;;;;7.10;99.90;;;;;;5035953;28;20049;-68
2021/04/14 08:41:03;;;;;;;4.50;1.98;;;7.10;99.90;;;;;;5036938;28;20380;-68
2021/04/14 08:43:40;;;;;;;4.57;1.60;;;7.30;99.90;;;;;;5030079;28;20045;-69
2021/04/14 08:46:26;;;;;;;3.97;2.08;;;7.50;99.90;;;;;;5013516;28;20030;-70
2021/04/14 08:48:59;;;;;;;5.47;2.45;;;7.50;99.50;;;;;;5028163;28;20041;-70
2021/04/14 08:51:27;;;;;;;6.95;1.88;;;7.60;99.90;;;;;;5013286;28;20034;-70
2021/04/14 08:53:55;;;;;;;4.60;2.10;;;7.70;99.30;;;;;;5028335;28;20112;-69
2021/04/14 08:56:24;;;;;;;7.32;2.20;;;7.60;99.40;;;;;;5013157;28;20030;-70
2021/04/14 08:58:52;;;;;;;4.50;1.92;;;7.60;99.90;;;;;;5013194;28;20033;-70
2021/04/14 09:01:17;;;;;;;3.63;1.90;;;7.80;99.80;;;;;;5012970;28;20041;-69
2021/04/14 09:03:46;;;;;;;8.68;2.15;;;8.20;98.80;;;;;;5013012;28;20030;-69
2021/04/14 09:06:15;;;;;;;6.30;2.17;;;8.30;97.60;;;;;;5027995;28;20041;-69
2021/04/14 09:08:44;;;;;;;6.50;2.25;;;8.20;97.30;;;;;;5013053;28;20030;-69
2021/04/14 09:11:28;;;;;;;4.22;2.25;;;8.20;96.80;;;;;;5027621;28;20486;-69
2021/04/14 09:14:03;;;;;;;5.90;2.38;;;8.20;96.70;;;;;;5028049;28;20046;-69
2021/04/14 09:16:54;;;;;;;5.72;2.10;;;8.00;96.70;;;;;;5012848;28;20034;-70
2021/04/14 09:19:19;;;;;;;5.22;2.35;;;8.00;96.50;;;;;;5018040;28;20124;-69
2021/04/14 09:22:00;;;;;;;3.42;1.90;;;8.00;96.10;;;;;;5032560;28;20117;-69
2021/04/14 09:24:34;;;;;;;5.93;1.90;;;8.00;96.20;;;;;;5032473;28;20025;-69
2021/04/14 09:27:02;;;;;;;4.70;1.92;;;7.90;97.10;;;;;;5032620;28;20098;-68
2021/04/14 09:29:59;;;;;;;7.03;2.13;;;8.00;99.90;;;;;;5031028;28;20041;-71
2021/04/14 09:32:51;;;;;;;7.75;2.58;;;7.80;99.90;;;;;;5031254;28;20057;-70
2021/04/14 09:35:27;;;;;;;5.22;1.92;;;7.60;99.90;;;;;;5014575;28;20029;-70
2021/04/14 09:38:32;;;;;;;5.20;2.20;;;7.40;99.90;;;;;;5047376;28;20037;-70
2021/04/14 09:41:26;;;;;;;5.63;1.90;;;7.40;99.90;;;;;;5014299;28;20147;-70
2021/04/14 09:43:56;;;;;;;8.07;1.98;;;7.50;99.90;;;;;;5032235;28;20037;-69
2021/04/14 09:46:38;;;;;;;5.03;1.90;;;7.50;99.90;;;;;;5032608;28;20096;-69
2021/04/14 09:49:36;;;;;;;4.47;1.90;;;7.60;99.90;;;;;;5032232;28;20093;-68
2021/04/14 09:52:06;;;;;;;7.18;1.67;;;7.90;99.90;;;;;;5031328;28;20033;-70
2021/04/14 09:54:37;;;;;;;7.63;2.30;;;8.00;98.40;;;;;;5032066;28;20264;-70
2021/04/14 09:57:05;;;;;;;5.53;1.55;;;8.20;97.00;;;;;;5049972;28;20359;-70
2021/04/14 09:59:39;;;;;;;6.68;1.80;;;8.30;93.50;;;;;;5034352;28;20033;-69
2021/04/14 10:02:15;;;;;;;6.40;1.35;;;8.10;93.50;;;;;;5052044;28;20504;-69
2021/04/14 10:04:43;;;;;;;2.33;1.13;;;8.00;93.20;;;;;;5032902;28;20052;-69
2021/04/14 10:07:20;;;;;;;10.18;1.95;;;8.10;92.10;;;;;;5034033;28;20045;-70
2021/04/14 10:09:46;;;;;;;4.30;2.35;;;8.50;92.30;;;;;;5051803;28;20029;-69
2021/04/14 10:12:26;;;;;;;4.25;1.40;;;8.70;91.80;;;;;;5051796;28;20033;-69
2021/04/14 10:14:58;;;;;;;6.00;2.13;;;9.00;91.00;;;;;;5034073;28;20032;-69
2021/04/14 10:17:29;;;;;;;3.53;1.30;;;9.00;90.10;;;;;;5051678;28;20035;-73
2021/04/14 10:20:05;;;;;;;3.50;1.40;;;8.80;90.00;;;;;;5051373;28;20052;-69
2021/04/14 10:22:39;;;;;;;3.97;1.38;;;8.90;90.80;;;;;;5035591;28;20051;-71
2021/04/14 10:25:09;;;;;;;6.00;1.10;;;9.00;85.50;;;;;;5034394;28;20087;-69
2021/04/14 10:27:35;;;;;;;8.60;1.38;;;9.40;83.80;;;;;;5051627;28;20037;-72
2021/04/14 10:30:07;;;;;;;5.07;1.30;;;9.20;83.50;;;;;;5053603;28;20029;-74
2021/04/14 10:32:33;;;;;;;7.60;1.67;;;8.30;83.30;;;;;;5037988;28;20568;-72
2021/04/14 10:35:16;;;;;;;3.95;1.77;;;8.50;85.30;;;;;;5055491;28;20032;-71
2021/04/14 10:37:54;;;;;;;4.05;1.10;;;8.80;85.00;;;;;;5055596;28;20029;-71
2021/04/14 10:40:33;;;;;;;6.70;1.42;;;8.90;84.90;;;;;;5055153;28;20036;-72
2021/04/14 10:43:20;;;;;;;2.40;1.10;;;9.00;84.90;;;;;;5055617;28;20466;-71
2021/04/14 10:46:14;;;;;;;3.38;1.27;;;9.30;85.00;;;;;;5038464;28;20551;-71
2021/04/14 10:48:47;;;;;;;8.13;1.40;;;9.00;85.10;;;;;;5055026;28;20124;-70
2021/04/14 10:51:16;;;;;;;22.20;8.60;;;9.10;84.30;;;;;;5037784;28;20037;-68
2021/04/14 10:53:44;;;;;;;16.65;7.20;;;8.90;84.50;;;;;;5055180;28;20083;-70
2021/04/14 10:56:29;;;;;;;6.15;3.10;;;9.10;84.60;;;;;;5037172;28;20496;-71
2021/04/14 10:58:57;;;;;;;5.22;1.48;;;9.60;84.90;;;;;;5053875;28;20444;-70
2021/04/14 11:01:47;;;;;;;2.05;1.10;;;9.70;83.20;;;;;;5050421;28;20515;-69
2021/04/14 11:04:16;;;;;;;3.42;1.13;;;10.10;77.40;;;;;;5033638;28;20034;-70
2021/04/14 11:06:52;;;;;;;2.55;1.13;;;10.40;77.80;;;;;;5033673;28;20120;-70
2021/04/14 11:09:19;;;;;;;3.72;1.33;;;11.10;70.80;;;;;;5067728;28;20032;-70
2021/04/14 11:11:46;;;;;;;6.43;1.17;;;10.70;71.40;;;;;;5057167;28;20032;-69
2021/04/14 11:14:16;;;;;;;2.10;0.70;;;11.10;69.50;;;;;;5074455;28;20025;-71
2021/04/14 11:16:46;;;;;;;4.45;1.25;;;11.50;66.30;;;;;;5056609;28;20029;-70
2021/04/14 11:19:20;;;;;;;5.32;1.38;;;11.60;66.70;;;;;;5046595;28;20060;-71
2021/04/14 11:22:10;;;;;;;1.80;1.00;;;12.00;65.20;;;;;;5034552;28;20029;-71
2021/04/14 11:24:51;;;;;;;2.88;1.17;;;12.00;63.70;;;;;;5034611;28;20026;-70
2021/04/14 11:27:30;;;;;;;4.65;1.40;;;12.40;63.40;;;;;;5034294;28;20021;-70
2021/04/14 11:30:16;;;;;;;5.05;1.27;;;11.90;60.90;;;;;;5033702;28;20112;-71
2021/04/14 11:33:00;;;;;;;4.60;1.08;;;11.80;62.50;;;;;;5033203;28;20035;-69
2021/04/14 11:35:51;;;;;;;2.95;1.05;;;11.80;58.30;;;;;;5033171;28;20030;-70
2021/04/14 11:38:29;;;;;;;2.53;1.00;;;12.30;59.40;;;;;;5034565;28;20032;-69
2021/04/14 11:40:57;;;;;;;3.60;1.33;;;13.50;57.50;;;;;;5033447;28;20033;-70
2021/04/14 11:43:37;;;;;;;3.97;0.95;;;13.30;56.00;;;;;;5032987;28;20041;-72
2021/04/14 11:46:38;;;;;;;4.43;1.25;;;13.10;54.70;;;;;;5034403;28;20030;-70
2021/04/14 11:49:08;;;;;;;3.40;0.87;;;13.50;56.30;;;;;;5049303;28;20030;-70
2021/04/14 11:51:38;;;;;;;2.67;1.10;;;13.20;55.70;;;;;;5033665;28;20276;-69
2021/04/14 11:54:16;;;;;;;2.92;1.20;;;13.00;53.70;;;;;;5029203;28;20084;-70
2021/04/14 11:57:05;;;;;;;10.68;6.47;;;13.60;51.30;;;;;;5013927;28;20041;-70
2021/04/14 11:59:36;;;;;;;2.85;0.90;;;13.50;52.50;;;;;;5023562;28;20099;-70
2021/04/14 12:02:25;;;;;;;2.83;1.25;;;14.20;49.80;;;;;;5033897;28;20040;-71
2021/04/14 12:05:06;;;;;;;4.30;1.05;;;13.40;50.20;;;;;;5032865;28;20037;-71
2021/04/14 12:07:32;;;;;;;1.30;0.80;;;12.30;52.80;;;;;;5033235;28;20026;-71
2021/04/14 12:09:59;;;;;;;4.15;1.30;;;11.90;55.10;;;;;;5033698;28;20171;-71
2021/04/14 12:12:25;;;;;;;2.65;1.15;;;11.80;53.70;;;;;;5015767;28;20505;-70
2021/04/14 12:14:52;;;;;;;5.03;1.58;;;11.60;53.40;;;;;;5031988;28;20429;-70
2021/04/14 12:17:18;;;;;;;5.32;1.50;;;10.90;54.70;;;;;;5032609;28;20067;-71
2021/04/14 12:19:45;;;;;;;2.35;1.17;;;10.70;55.00;;;;;;5043748;28;20063;-71
2021/04/14 12:22:12;;;;;;;3.05;1.25;;;10.60;55.10;;;;;;5053558;28;20033;-72
2021/04/14 12:24:38;;;;;;;5.15;1.50;;;10.80;57.60;;;;;;5053350;28;20033;-72
2021/04/14 12:27:05;;;;;;;4.15;1.10;;;10.80;57.50;;;;;;5052734;28;20508;-74
2021/04/14 12:29:30;;;;;;;4.78;1.73;;;10.90;54.00;;;;;;5053257;28;20029;-72
2021/04/14 12:31:56;;;;;;;4.38;1.52;;;10.70;57.70;;;;;;5052864;28;20032;-72
2021/04/14 12:34:23;;;;;;;25.38;12.73;;;10.70;55.10;;;;;;5053360;28;20029;-71
2021/04/14 12:36:49;;;;;;;4.90;1.52;;;11.00;59.10;;;;;;5053027;28;20025;-71
2021/04/14 12:39:15;;;;;;;3.35;1.20;;;11.30;55.90;;;;;;5053082;28;20039;-71
2021/04/14 12:41:41;;;;;;;2.83;1.15;;;11.10;54.60;;;;;;5052641;28;20436;-72
2021/04/14 12:44:08;;;;;;;3.60;1.40;;;11.10;54.70;;;;;;5053036;28;20083;-71
2021/04/14 12:46:45;;;;;;;3.75;1.20;;;12.20;55.30;;;;;;5053027;28;20040;-71
2021/04/14 12:49:16;;;;;;;2.90;1.10;;;12.80;49.40;;;;;;5052895;28;20038;-72
2021/04/14 12:51:45;;;;;;;1.50;0.90;;;13.30;50.60;;;;;;5052981;28;20040;-73
2021/04/14 12:54:14;;;;;;;2.40;0.90;;;14.40;48.30;;;;;;5052873;28;20071;-72
2021/04/14 12:56:51;;;;;;;2.75;1.10;;;15.40;44.60;;;;;;5052775;28;20047;-73
2021/04/14 12:59:26;;;;;;;4.68;0.90;;;14.60;45.50;;;;;;5067584;28;20033;-72
2021/04/14 13:02:04;;;;;;;3.88;1.48;;;14.00;46.60;;;;;;5052693;28;20039;-71
2021/04/14 13:04:48;;;;;;;2.88;1.10;;;13.20;48.50;;;;;;5051439;28;20029;-75
2021/04/14 13:07:24;;;;;;;3.17;0.85;;;14.10;47.90;;;;;;5052643;28;20041;-71
2021/04/14 13:09:52;;;;;;;5.43;1.10;;;15.50;45.40;;;;;;5052514;28;20033;-69
2021/04/14 13:12:31;;;;;;;3.38;1.05;;;14.20;45.40;;;;;;5052477;28;20060;-70
2021/04/14 13:14:57;;;;;;;2.50;1.08;;;13.80;46.80;;;;;;5052688;28;20528;-72
2021/04/14 13:17:31;;;;;;;2.30;1.00;;;13.50;46.80;;;;;;5051682;28;20082;-65
2021/04/14 13:20:00;;;;;;;3.95;1.30;;;14.00;45.60;;;;;;5050537;28;20539;-73
2021/04/14 13:22:54;;;;;;;4.40;1.40;;;13.90;45.50;;;;;;5052095;28;20056;-72